sensor_id;sensor_type;location;lat;lon;timestamp;pressure;altitude;pressure_sealevel;temperature;humidity
53719;BME280;39616;48.872;9.390;2023-08-17T00:01:29;98445.31;;;18.61;100.00
53719;BME280;39616;48.872;9.390;2023-08-17T00:03:59;98437.31;;;18.56;100.00
53719;BME280;39616;48.872;9.390;2023-08-17T00:06:29;98450.13;;;18.52;100.00
53719;BME280;39616;48.872;9.390;2023-08-17T00:09:00;98448.09;;;18.49;100.00
53719;BME280;39616;48.872;9.390;2023-08-17T00:11:30;98453.13;;;18.47;100.00
53719;BME280;39616;48.872;9.390;2023-08-17T00:14:00;98450.72;;;18.45;100.00
53719;BME280;39616;48.872;9.390;2023-08-17T00:16:31;98463.97;;;18.43;100.00
53719;BME280;39616;48.872;9.390;2023-08-17T00:19:01;98453.69;;;18.40;100.00
53719;BME280;39616;48.872;9.390;2023-08-17T00:21:32;98439.16;;;18.40;100.00
53719;BME280;39616;48.872;9.390;2023-08-17T00:24:02;98439.28;;;18.43;100.00
53719;BME280;39616;48.872;9.390;2023-08-17T00:26:33;98438.38;;;18.39;100.00
53719;BME280;39616;48.872;9.390;2023-08-17T00:29:04;98430.94;;;18.40;100.00
53719;BME280;39616;48.872;9.390;2023-08-17T00:31:34;98434.34;;;18.37;100.00
53719;BME280;39616;48.872;9.390;2023-08-17T00:34:04;98427.75;;;18.38;100.00
53719;BME280;39616;48.872;9.390;2023-08-17T00:36:35;98431.97;;;18.35;100.00
53719;BME280;39616;48.872;9.390;2023-08-17T00:39:06;98429.47;;;18.30;100.00
53719;BME280;39616;48.872;9.390;2023-08-17T00:41:36;98424.19;;;18.25;100.00
53719;BME280;39616;48.872;9.390;2023-08-17T00:44:06;98428.78;;;18.21;100.00
53719;BME280;39616;48.872;9.390;2023-08-17T00:46:37;98434.50;;;18.16;100.00
53719;BME280;39616;48.872;9.390;2023-08-17T00:49:09;98435.41;;;18.20;100.00
53719;BME280;39616;48.872;9.390;2023-08-17T00:51:40;98429.94;;;18.20;100.00
53719;BME280;39616;48.872;9.390;2023-08-17T00:54:10;98439.16;;;18.15;100.00
53719;BME280;39616;48.872;9.390;2023-08-17T00:56:41;98441.22;;;18.18;100.00
53719;BME280;39616;48.872;9.390;2023-08-17T00:59:12;98438.16;;;18.20;100.00
53719;BME280;39616;48.872;9.390;2023-08-17T01:01:42;98437.69;;;18.18;100.00
53719;BME280;39616;48.872;9.390;2023-08-17T01:04:13;98435.41;;;18.20;100.00
53719;BME280;39616;48.872;9.390;2023-08-17T01:06:43;98431.53;;;18.21;100.00
53719;BME280;39616;48.872;9.390;2023-08-17T01:09:13;98435.84;;;18.22;100.00
53719;BME280;39616;48.872;9.390;2023-08-17T01:14:39;98426.94;;;18.25;100.00
53719;BME280;39616;48.872;9.390;2023-08-17T01:17:18;98413.00;;;18.30;100.00
53719;BME280;39616;48.872;9.390;2023-08-17T01:19:52;98417.66;;;18.29;100.00
53719;BME280;39616;48.872;9.390;2023-08-17T01:22:24;98421.25;;;18.30;100.00
53719;BME280;39616;48.872;9.390;2023-08-17T01:24:56;98422.34;;;18.29;100.00
53719;BME280;39616;48.872;9.390;2023-08-17T01:27:54;98416.44;;;18.27;100.00
53719;BME280;39616;48.872;9.390;2023-08-17T01:30:24;98415.41;;;18.19;100.00
53719;BME280;39616;48.872;9.390;2023-08-17T01:32:59;98412.09;;;18.14;100.00
53719;BME280;39616;48.872;9.390;2023-08-17T01:35:39;98408.78;;;18.08;100.00
53719;BME280;39616;48.872;9.390;2023-08-17T01:38:12;98417.34;;;18.06;100.00
53719;BME280;39616;48.872;9.390;2023-08-17T01:40:45;98409.13;;;18.06;100.00
53719;BME280;39616;48.872;9.390;2023-08-17T01:43:18;98403.63;;;18.06;100.00
53719;BME280;39616;48.872;9.390;2023-08-17T01:45:48;98404.78;;;18.05;100.00
53719;BME280;39616;48.872;9.390;2023-08-17T01:48:19;98397.34;;;18.06;100.00
53719;BME280;39616;48.872;9.390;2023-08-17T01:50:49;98393.00;;;18.05;100.00
53719;BME280;39616;48.872;9.390;2023-08-17T01:53:19;98386.00;;;18.07;100.00
53719;BME280;39616;48.872;9.390;2023-08-17T01:55:50;98393.66;;;18.14;100.00
53719;BME280;39616;48.872;9.390;2023-08-17T01:58:20;98399.50;;;18.13;100.00
53719;BME280;39616;48.872;9.390;2023-08-17T02:00:50;98399.84;;;18.11;100.00
53719;BME280;39616;48.872;9.390;2023-08-17T02:03:21;98399.94;;;18.15;100.00
53719;BME280;39616;48.872;9.390;2023-08-17T02:05:51;98395.50;;;18.22;100.00
53719;BME280;39616;48.872;9.390;2023-08-17T02:08:21;98395.59;;;18.26;100.00
53719;BME280;39616;48.872;9.390;2023-08-17T02:10:51;98400.41;;;18.29;100.00
53719;BME280;39616;48.872;9.390;2023-08-17T02:13:22;98393.31;;;18.28;100.00
53719;BME280;39616;48.872;9.390;2023-08-17T02:15:52;98398.22;;;18.34;100.00
53719;BME280;39616;48.872;9.390;2023-08-17T02:18:23;98399.94;;;18.39;100.00
53719;BME280;39616;48.872;9.390;2023-08-17T02:20:53;98404.28;;;18.40;100.00
53719;BME280;39616;48.872;9.390;2023-08-17T02:23:23;98399.78;;;18.48;100.00
53719;BME280;39616;48.872;9.390;2023-08-17T02:25:54;98396.03;;;18.52;100.00
53719;BME280;39616;48.872;9.390;2023-08-17T02:28:24;98391.44;;;18.56;100.00
53719;BME280;39616;48.872;9.390;2023-08-17T02:30:58;98386.47;;;18.62;100.00
53719;BME280;39616;48.872;9.390;2023-08-17T02:33:28;98383.06;;;18.65;100.00
53719;BME280;39616;48.872;9.390;2023-08-17T02:35:59;98380.91;;;18.71;100.00
53719;BME280;39616;48.872;9.390;2023-08-17T02:38:29;98381.34;;;18.73;100.00
53719;BME280;39616;48.872;9.390;2023-08-17T02:40:59;98379.38;;;18.73;100.00
53719;BME280;39616;48.872;9.390;2023-08-17T02:43:30;98377.09;;;18.75;100.00
53719;BME280;39616;48.872;9.390;2023-08-17T02:46:00;98378.38;;;18.78;100.00
53719;BME280;39616;48.872;9.390;2023-08-17T02:48:30;98373.75;;;18.82;100.00
53719;BME280;39616;48.872;9.390;2023-08-17T02:51:01;98373.88;;;18.86;100.00
53719;BME280;39616;48.872;9.390;2023-08-17T02:53:31;98375.88;;;18.89;100.00
53719;BME280;39616;48.872;9.390;2023-08-17T02:56:01;98368.00;;;18.87;100.00
53719;BME280;39616;48.872;9.390;2023-08-17T02:58:32;98374.19;;;18.84;100.00
53719;BME280;39616;48.872;9.390;2023-08-17T03:01:02;98374.19;;;18.84;100.00
53719;BME280;39616;48.872;9.390;2023-08-17T03:03:33;98365.41;;;18.78;100.00
53719;BME280;39616;48.872;9.390;2023-08-17T03:06:04;98359.47;;;18.76;100.00
53719;BME280;39616;48.872;9.390;2023-08-17T03:08:35;98359.47;;;18.76;100.00
53719;BME280;39616;48.872;9.390;2023-08-17T03:11:05;98363.81;;;18.77;100.00
53719;BME280;39616;48.872;9.390;2023-08-17T03:13:37;98352.81;;;18.77;100.00
53719;BME280;39616;48.872;9.390;2023-08-17T03:16:07;98347.78;;;18.79;100.00
53719;BME280;39616;48.872;9.390;2023-08-17T03:18:38;98351.59;;;18.75;100.00
53719;BME280;39616;48.872;9.390;2023-08-17T03:21:08;98344.84;;;18.72;100.00
53719;BME280;39616;48.872;9.390;2023-08-17T03:23:38;98349.03;;;18.70;100.00
53719;BME280;39616;48.872;9.390;2023-08-17T03:26:08;98340.13;;;18.73;100.00
53719;BME280;39616;48.872;9.390;2023-08-17T03:28:39;98348.94;;;18.78;100.00
53719;BME280;39616;48.872;9.390;2023-08-17T03:31:09;98350.78;;;18.74;100.00
53719;BME280;39616;48.872;9.390;2023-08-17T03:33:39;98342.44;;;18.71;100.00
53719;BME280;39616;48.872;9.390;2023-08-17T03:36:10;98338.84;;;18.70;100.00
53719;BME280;39616;48.872;9.390;2023-08-17T03:38:41;98346.28;;;18.70;100.00
53719;BME280;39616;48.872;9.390;2023-08-17T03:41:11;98345.84;;;18.68;100.00
53719;BME280;39616;48.872;9.390;2023-08-17T03:43:41;98346.28;;;18.70;100.00
53719;BME280;39616;48.872;9.390;2023-08-17T03:46:11;98345.63;;;18.73;100.00
53719;BME280;39616;48.872;9.390;2023-08-17T03:48:42;98349.84;;;18.70;100.00
53719;BME280;39616;48.872;9.390;2023-08-17T03:51:12;98344.69;;;18.69;100.00
53719;BME280;39616;48.872;9.390;2023-08-17T03:53:42;98342.75;;;18.69;100.00
53719;BME280;39616;48.872;9.390;2023-08-17T03:56:13;98351.34;;;18.68;100.00
53719;BME280;39616;48.872;9.390;2023-08-17T03:58:43;98352.47;;;18.67;100.00
53719;BME280;39616;48.872;9.390;2023-08-17T04:01:13;98362.22;;;18.64;100.00
53719;BME280;39616;48.872;9.390;2023-08-17T04:03:44;98370.47;;;18.64;100.00
53719;BME280;39616;48.872;9.390;2023-08-17T04:06:14;98374.72;;;18.62;100.00
53719;BME280;39616;48.872;9.390;2023-08-17T04:08:45;98368.88;;;18.63;100.00
53719;BME280;39616;48.872;9.390;2023-08-17T04:11:16;98371.63;;;18.63;100.00
53719;BME280;39616;48.872;9.390;2023-08-17T04:13:46;98378.59;;;18.61;100.00
53719;BME280;39616;48.872;9.390;2023-08-17T04:16:16;98377.03;;;18.59;100.00
53719;BME280;39616;48.872;9.390;2023-08-17T04:18:46;98378.50;;;18.57;100.00
53719;BME280;39616;48.872;9.390;2023-08-17T04:21:17;98381.00;;;18.62;100.00
53719;BME280;39616;48.872;9.390;2023-08-17T04:23:47;98384.91;;;18.61;100.00
53719;BME280;39616;48.872;9.390;2023-08-17T04:26:17;98383.75;;;18.62;100.00
53719;BME280;39616;48.872;9.390;2023-08-17T04:28:48;98387.75;;;18.65;100.00
53719;BME280;39616;48.872;9.390;2023-08-17T04:31:18;98385.44;;;18.67;100.00
53719;BME280;39616;48.872;9.390;2023-08-17T04:33:48;98394.63;;;18.71;100.00
53719;BME280;39616;48.872;9.390;2023-08-17T04:36:19;98388.91;;;18.64;100.00
53719;BME280;39616;48.872;9.390;2023-08-17T04:38:49;98396.34;;;18.63;100.00
53719;BME280;39616;48.872;9.390;2023-08-17T04:41:19;98397.72;;;18.57;100.00
53719;BME280;39616;48.872;9.390;2023-08-17T04:43:52;98396.25;;;18.59;100.00
53719;BME280;39616;48.872;9.390;2023-08-17T04:46:22;98403.31;;;18.61;100.00
53719;BME280;39616;48.872;9.390;2023-08-17T04:48:53;98397.25;;;18.67;100.00
53719;BME280;39616;48.872;9.390;2023-08-17T04:51:23;98398.97;;;18.72;100.00
53719;BME280;39616;48.872;9.390;2023-08-17T04:53:53;98407.75;;;18.77;100.00
53719;BME280;39616;48.872;9.390;2023-08-17T04:56:24;98411.44;;;18.81;100.00
53719;BME280;39616;48.872;9.390;2023-08-17T04:58:54;98409.22;;;18.87;100.00
53719;BME280;39616;48.872;9.390;2023-08-17T05:01:24;98404.28;;;18.93;100.00
53719;BME280;39616;48.872;9.390;2023-08-17T05:03:55;98412.63;;;18.96;100.00
53719;BME280;39616;48.872;9.390;2023-08-17T05:06:28;98415.13;;;19.01;100.00
53719;BME280;39616;48.872;9.390;2023-08-17T05:08:58;98407.66;;;19.02;100.00
53719;BME280;39616;48.872;9.390;2023-08-17T05:11:28;98411.22;;;19.02;100.00
53719;BME280;39616;48.872;9.390;2023-08-17T05:13:58;98411.13;;;18.99;100.00
53719;BME280;39616;48.872;9.390;2023-08-17T05:16:29;98405.72;;;19.02;100.00
53719;BME280;39616;48.872;9.390;2023-08-17T05:18:59;98410.06;;;19.03;100.00
53719;BME280;39616;48.872;9.390;2023-08-17T05:21:30;98404.31;;;19.09;100.00
53719;BME280;39616;48.872;9.390;2023-08-17T05:24:00;98402.09;;;19.14;100.00
53719;BME280;39616;48.872;9.390;2023-08-17T05:26:31;98401.88;;;19.19;100.00
53719;BME280;39616;48.872;9.390;2023-08-17T05:29:01;98401.28;;;19.26;100.00
53719;BME280;39616;48.872;9.390;2023-08-17T05:31:32;98403.84;;;19.35;100.00
53719;BME280;39616;48.872;9.390;2023-08-17T05:34:02;98411.03;;;19.39;100.00
53719;BME280;39616;48.872;9.390;2023-08-17T05:36:32;98408.94;;;19.48;100.00
53719;BME280;39616;48.872;9.390;2023-08-17T05:39:03;98403.84;;;19.50;100.00
53719;BME280;39616;48.872;9.390;2023-08-17T05:41:33;98406.69;;;19.54;100.00
53719;BME280;39616;48.872;9.390;2023-08-17T05:44:04;98417.00;;;19.57;100.00
53719;BME280;39616;48.872;9.390;2023-08-17T05:46:36;98414.00;;;19.62;100.00
53719;BME280;39616;48.872;9.390;2023-08-17T05:49:07;98415.34;;;19.68;100.00
53719;BME280;39616;48.872;9.390;2023-08-17T05:51:37;98413.31;;;19.65;100.00
53719;BME280;39616;48.872;9.390;2023-08-17T05:54:07;98412.31;;;19.73;100.00
53719;BME280;39616;48.872;9.390;2023-08-17T05:56:38;98421.91;;;19.79;100.00
53719;BME280;39616;48.872;9.390;2023-08-17T05:59:08;98420.41;;;19.82;100.00
53719;BME280;39616;48.872;9.390;2023-08-17T06:01:39;98421.91;;;19.79;100.00
53719;BME280;39616;48.872;9.390;2023-08-17T06:04:10;98427.44;;;19.79;100.00
53719;BME280;39616;48.872;9.390;2023-08-17T06:06:40;98427.97;;;19.85;100.00
53719;BME280;39616;48.872;9.390;2023-08-17T06:09:10;98418.66;;;19.90;100.00
53719;BME280;39616;48.872;9.390;2023-08-17T06:11:41;98424.16;;;19.90;100.00
53719;BME280;39616;48.872;9.390;2023-08-17T06:14:11;98415.53;;;19.91;100.00
53719;BME280;39616;48.872;9.390;2023-08-17T06:16:42;98429.47;;;19.98;100.00
53719;BME280;39616;48.872;9.390;2023-08-17T06:19:12;98424.31;;;19.97;100.00
53719;BME280;39616;48.872;9.390;2023-08-17T06:21:42;98426.72;;;19.98;100.00
53719;BME280;39616;48.872;9.390;2023-08-17T06:24:13;98424.84;;;20.02;100.00
53719;BME280;39616;48.872;9.390;2023-08-17T06:26:44;98431.06;;;19.99;100.00
53719;BME280;39616;48.872;9.390;2023-08-17T06:29:14;98430.72;;;20.01;100.00
53719;BME280;39616;48.872;9.390;2023-08-17T06:31:44;98428.56;;;20.10;100.00
53719;BME280;39616;48.872;9.390;2023-08-17T06:34:15;98435.41;;;20.16;100.00
53719;BME280;39616;48.872;9.390;2023-08-17T06:36:59;98437.16;;;20.40;100.00
53719;BME280;39616;48.872;9.390;2023-08-17T06:39:29;98430.47;;;20.57;100.00
53719;BME280;39616;48.872;9.390;2023-08-17T06:42:00;98432.81;;;20.74;100.00
53719;BME280;39616;48.872;9.390;2023-08-17T06:44:30;98431.66;;;20.95;100.00
53719;BME280;39616;48.872;9.390;2023-08-17T06:47:01;98433.69;;;20.98;100.00
53719;BME280;39616;48.872;9.390;2023-08-17T06:49:31;98432.16;;;21.20;100.00
53719;BME280;39616;48.872;9.390;2023-08-17T06:52:05;98429.25;;;21.32;100.00
53719;BME280;39616;48.872;9.390;2023-08-17T06:54:35;98438.38;;;21.56;100.00
53719;BME280;39616;48.872;9.390;2023-08-17T06:57:05;98428.81;;;21.95;100.00
53719;BME280;39616;48.872;9.390;2023-08-17T06:59:36;98429.25;;;22.21;100.00
53719;BME280;39616;48.872;9.390;2023-08-17T07:02:06;98430.28;;;22.35;100.00
53719;BME280;39616;48.872;9.390;2023-08-17T07:04:36;98429.66;;;22.23;100.00
53719;BME280;39616;48.872;9.390;2023-08-17T07:07:07;98425.59;;;22.39;100.00
53719;BME280;39616;48.872;9.390;2023-08-17T07:09:37;98434.94;;;22.58;100.00
53719;BME280;39616;48.872;9.390;2023-08-17T07:12:08;98434.78;;;22.77;97.52
53719;BME280;39616;48.872;9.390;2023-08-17T07:14:38;98441.66;;;22.87;95.69
53719;BME280;39616;48.872;9.390;2023-08-17T07:17:09;98441.25;;;22.88;93.20
53719;BME280;39616;48.872;9.390;2023-08-17T07:19:39;98435.09;;;22.69;95.33
53719;BME280;39616;48.872;9.390;2023-08-17T07:22:09;98442.28;;;22.77;96.23
53719;BME280;39616;48.872;9.390;2023-08-17T07:24:40;98437.69;;;22.88;97.14
53719;BME280;39616;48.872;9.390;2023-08-17T07:27:10;98449.28;;;23.27;93.19
53719;BME280;39616;48.872;9.390;2023-08-17T07:29:40;98448.25;;;23.43;90.74
53719;BME280;39616;48.872;9.390;2023-08-17T07:32:10;98452.09;;;23.31;90.19
53719;BME280;39616;48.872;9.390;2023-08-17T07:34:41;98447.53;;;23.49;90.18
53719;BME280;39616;48.872;9.390;2023-08-17T07:37:11;98446.38;;;23.50;89.24
53719;BME280;39616;48.872;9.390;2023-08-17T07:39:41;98435.66;;;23.49;89.23
53719;BME280;39616;48.872;9.390;2023-08-17T07:42:12;98437.03;;;23.66;87.82
53719;BME280;39616;48.872;9.390;2023-08-17T07:44:42;98442.66;;;24.17;85.10
53719;BME280;39616;48.872;9.390;2023-08-17T07:47:12;98446.59;;;24.71;84.22
53719;BME280;39616;48.872;9.390;2023-08-17T07:49:43;98449.84;;;24.88;82.03
53719;BME280;39616;48.872;9.390;2023-08-17T07:52:13;98445.84;;;24.74;79.65
53719;BME280;39616;48.872;9.390;2023-08-17T07:54:46;98441.19;;;25.03;79.39
53719;BME280;39616;48.872;9.390;2023-08-17T07:57:16;98447.34;;;25.45;77.69
53719;BME280;39616;48.872;9.390;2023-08-17T07:59:46;98443.75;;;25.48;75.67
53719;BME280;39616;48.872;9.390;2023-08-17T08:02:17;98435.75;;;25.21;76.95
53719;BME280;39616;48.872;9.390;2023-08-17T08:04:47;98439.94;;;24.87;79.99
53719;BME280;39616;48.872;9.390;2023-08-17T08:07:17;98438.28;;;24.68;81.17
53719;BME280;39616;48.872;9.390;2023-08-17T08:09:48;98442.22;;;24.70;79.28
53719;BME280;39616;48.872;9.390;2023-08-17T08:12:18;98441.19;;;24.34;80.74
53719;BME280;39616;48.872;9.390;2023-08-17T08:14:48;98442.50;;;23.99;84.02
53719;BME280;39616;48.872;9.390;2023-08-17T08:17:19;98442.38;;;24.37;81.08
53719;BME280;39616;48.872;9.390;2023-08-17T08:19:49;98438.81;;;24.36;82.36
53719;BME280;39616;48.872;9.390;2023-08-17T08:22:21;98436.91;;;24.40;82.49
53719;BME280;39616;48.872;9.390;2023-08-17T08:24:51;98436.72;;;24.81;80.12
53719;BME280;39616;48.872;9.390;2023-08-17T08:27:21;98442.88;;;25.15;78.11
53719;BME280;39616;48.872;9.390;2023-08-17T08:29:52;98437.88;;;25.71;75.59
53719;BME280;39616;48.872;9.390;2023-08-17T08:32:22;98442.47;;;25.17;77.45
53719;BME280;39616;48.872;9.390;2023-08-17T08:34:52;98438.94;;;25.27;77.72
53719;BME280;39616;48.872;9.390;2023-08-17T08:37:22;98434.31;;;25.85;76.27
53719;BME280;39616;48.872;9.390;2023-08-17T08:39:54;98429.56;;;26.03;75.43
53719;BME280;39616;48.872;9.390;2023-08-17T08:42:25;98427.56;;;26.54;74.04
53719;BME280;39616;48.872;9.390;2023-08-17T08:44:55;98432.75;;;26.12;72.16
53719;BME280;39616;48.872;9.390;2023-08-17T08:47:26;98433.13;;;26.54;72.15
53719;BME280;39616;48.872;9.390;2023-08-17T08:50:02;98433.94;;;26.25;70.79
53719;BME280;39616;48.872;9.390;2023-08-17T08:52:35;98433.16;;;25.93;74.76
53719;BME280;39616;48.872;9.390;2023-08-17T08:55:15;98431.09;;;26.65;73.04
53719;BME280;39616;48.872;9.390;2023-08-17T08:57:48;98427.53;;;26.64;71.52
53719;BME280;39616;48.872;9.390;2023-08-17T09:00:19;98423.88;;;26.92;70.29
53719;BME280;39616;48.872;9.390;2023-08-17T09:02:51;98431.31;;;27.20;69.01
53719;BME280;39616;48.872;9.390;2023-08-17T09:05:21;98427.22;;;27.46;68.10
53719;BME280;39616;48.872;9.390;2023-08-17T09:07:52;98429.00;;;27.12;69.39
53719;BME280;39616;48.872;9.390;2023-08-17T09:10:23;98428.38;;;28.12;66.43
53719;BME280;39616;48.872;9.390;2023-08-17T09:12:54;98431.81;;;27.78;66.98
53719;BME280;39616;48.872;9.390;2023-08-17T09:15:24;98418.84;;;27.50;68.36
53719;BME280;39616;48.872;9.390;2023-08-17T09:17:54;98430.75;;;26.52;69.12
53719;BME280;39616;48.872;9.390;2023-08-17T09:20:45;98425.41;;;27.15;68.06
53719;BME280;39616;48.872;9.390;2023-08-17T09:23:17;98422.94;;;27.94;66.58
53719;BME280;39616;48.872;9.390;2023-08-17T09:25:50;98428.41;;;28.53;63.72
53719;BME280;39616;48.872;9.390;2023-08-17T09:28:22;98427.56;;;28.56;65.74
53719;BME280;39616;48.872;9.390;2023-08-17T09:30:58;98436.03;;;28.87;61.98
53719;BME280;39616;48.872;9.390;2023-08-17T09:33:30;98428.31;;;28.19;64.42
53719;BME280;39616;48.872;9.390;2023-08-17T09:36:00;98425.78;;;27.87;65.18
53719;BME280;39616;48.872;9.390;2023-08-17T09:38:31;98424.28;;;28.24;63.93
53719;BME280;39616;48.872;9.390;2023-08-17T09:41:01;98418.25;;;28.32;64.04
53719;BME280;39616;48.872;9.390;2023-08-17T09:43:32;98415.69;;;28.86;62.72
53719;BME280;39616;48.872;9.390;2023-08-17T09:46:04;98415.13;;;29.33;61.57
53719;BME280;39616;48.872;9.390;2023-08-17T09:48:34;98410.84;;;29.25;61.44
53719;BME280;39616;48.872;9.390;2023-08-17T09:51:06;98413.03;;;29.95;60.27
53719;BME280;39616;48.872;9.390;2023-08-17T09:53:36;98407.22;;;30.52;59.80
53719;BME280;39616;48.872;9.390;2023-08-17T09:56:10;98401.59;;;28.97;61.67
53719;BME280;39616;48.872;9.390;2023-08-17T09:58:43;98400.81;;;28.62;62.62
53719;BME280;39616;48.872;9.390;2023-08-17T10:01:14;98402.69;;;29.37;60.78
53719;BME280;39616;48.872;9.390;2023-08-17T10:03:45;98395.78;;;29.46;61.99
53719;BME280;39616;48.872;9.390;2023-08-17T10:06:20;98399.22;;;28.65;62.47
53719;BME280;39616;48.872;9.390;2023-08-17T10:08:52;98400.25;;;28.40;63.42
53719;BME280;39616;48.872;9.390;2023-08-17T10:11:25;98385.38;;;29.19;61.56
53719;BME280;39616;48.872;9.390;2023-08-17T10:13:59;98400.47;;;29.52;62.25
53719;BME280;39616;48.872;9.390;2023-08-17T10:16:47;98390.28;;;30.20;59.45
53719;BME280;39616;48.872;9.390;2023-08-17T10:19:33;98386.94;;;29.24;61.35
53719;BME280;39616;48.872;9.390;2023-08-17T10:22:14;98396.56;;;30.00;60.42
53719;BME280;39616;48.872;9.390;2023-08-17T10:24:47;98395.81;;;28.47;62.96
53719;BME280;39616;48.872;9.390;2023-08-17T10:27:20;98392.03;;;29.29;62.79
53719;BME280;39616;48.872;9.390;2023-08-17T10:29:51;98391.41;;;29.45;61.73
53719;BME280;39616;48.872;9.390;2023-08-17T10:32:22;98385.53;;;28.74;65.25
53719;BME280;39616;48.872;9.390;2023-08-17T10:34:53;98384.25;;;29.17;61.52
53719;BME280;39616;48.872;9.390;2023-08-17T10:37:24;98388.28;;;29.12;62.29
53719;BME280;39616;48.872;9.390;2023-08-17T10:39:55;98384.94;;;29.24;62.04
53719;BME280;39616;48.872;9.390;2023-08-17T10:42:33;98389.31;;;30.03;61.93
53719;BME280;39616;48.872;9.390;2023-08-17T10:45:30;98381.63;;;29.87;59.87
53719;BME280;39616;48.872;9.390;2023-08-17T10:50:38;98378.91;;;31.10;59.27
53719;BME280;39616;48.872;9.390;2023-08-17T10:53:12;98385.88;;;29.95;59.38
53719;BME280;39616;48.872;9.390;2023-08-17T10:55:46;98383.88;;;29.42;62.32
53719;BME280;39616;48.872;9.390;2023-08-17T10:58:21;98385.44;;;29.97;61.84
53719;BME280;39616;48.872;9.390;2023-08-17T11:00:55;98372.22;;;30.24;60.37
53719;BME280;39616;48.872;9.390;2023-08-17T11:03:25;98373.75;;;31.09;60.22
53719;BME280;39616;48.872;9.390;2023-08-17T11:05:57;98374.41;;;30.56;59.78
53719;BME280;39616;48.872;9.390;2023-08-17T11:08:39;98378.47;;;30.08;60.18
53719;BME280;39616;48.872;9.390;2023-08-17T11:11:12;98366.91;;;30.06;61.46
53719;BME280;39616;48.872;9.390;2023-08-17T11:13:44;98367.34;;;30.05;59.92
53719;BME280;39616;48.872;9.390;2023-08-17T11:16:16;98364.59;;;30.25;59.33
53719;BME280;39616;48.872;9.390;2023-08-17T11:18:49;98364.47;;;29.85;60.63
53719;BME280;39616;48.872;9.390;2023-08-17T11:21:21;98360.94;;;29.81;60.57
53719;BME280;39616;48.872;9.390;2023-08-17T11:23:55;98365.50;;;29.44;61.23
53719;BME280;39616;48.872;9.390;2023-08-17T11:26:26;98355.22;;;29.37;62.78
53719;BME280;39616;48.872;9.390;2023-08-17T11:28:56;98349.91;;;29.47;61.36
53719;BME280;39616;48.872;9.390;2023-08-17T11:31:27;98355.22;;;29.10;61.66
53719;BME280;39616;48.872;9.390;2023-08-17T11:33:58;98351.84;;;29.50;65.16
53719;BME280;39616;48.872;9.390;2023-08-17T11:36:28;98347.66;;;29.34;61.09
53719;BME280;39616;48.872;9.390;2023-08-17T11:38:58;98343.47;;;30.24;59.74
53719;BME280;39616;48.872;9.390;2023-08-17T11:41:29;98340.00;;;29.69;60.32
53719;BME280;39616;48.872;9.390;2023-08-17T11:43:59;98336.56;;;29.31;60.58
53719;BME280;39616;48.872;9.390;2023-08-17T11:46:29;98341.97;;;28.84;61.48
53719;BME280;39616;48.872;9.390;2023-08-17T11:49:00;98342.28;;;28.89;61.30
53719;BME280;39616;48.872;9.390;2023-08-17T11:51:31;98337.50;;;28.90;63.18
53719;BME280;39616;48.872;9.390;2023-08-17T11:54:01;98343.50;;;28.88;63.05
53719;BME280;39616;48.872;9.390;2023-08-17T11:56:37;98335.72;;;29.07;62.61
53719;BME280;39616;48.872;9.390;2023-08-17T11:59:10;98335.72;;;29.34;61.95
53719;BME280;39616;48.872;9.390;2023-08-17T12:01:44;98332.03;;;29.41;61.77
53719;BME280;39616;48.872;9.390;2023-08-17T12:04:14;98343.94;;;29.18;61.87
53719;BME280;39616;48.872;9.390;2023-08-17T12:06:45;98349.00;;;28.96;64.23
53719;BME280;39616;48.872;9.390;2023-08-17T12:09:15;98353.78;;;28.99;64.02
53719;BME280;39616;48.872;9.390;2023-08-17T12:11:45;98364.84;;;28.72;65.10
53719;BME280;39616;48.872;9.390;2023-08-17T12:14:16;98357.06;;;28.56;63.69
53719;BME280;39616;48.872;9.390;2023-08-17T12:16:47;98366.34;;;28.80;66.48
53719;BME280;39616;48.872;9.390;2023-08-17T12:19:19;98363.41;;;28.56;64.69
53719;BME280;39616;48.872;9.390;2023-08-17T12:21:50;98363.97;;;28.44;65.10
53719;BME280;39616;48.872;9.390;2023-08-17T12:24:23;98364.91;;;28.27;66.22
53719;BME280;39616;48.872;9.390;2023-08-17T12:26:57;98375.75;;;28.17;67.00
53719;BME280;39616;48.872;9.390;2023-08-17T12:29:27;98379.09;;;27.46;68.40
53719;BME280;39616;48.872;9.390;2023-08-17T12:31:58;98372.66;;;27.56;68.18
53719;BME280;39616;48.872;9.390;2023-08-17T12:34:29;98367.50;;;27.55;67.89
53719;BME280;39616;48.872;9.390;2023-08-17T12:37:00;98354.13;;;27.28;68.55
53719;BME280;39616;48.872;9.390;2023-08-17T12:39:30;98351.06;;;27.12;68.21
53719;BME280;39616;48.872;9.390;2023-08-17T12:42:00;98348.91;;;27.41;69.44
53719;BME280;39616;48.872;9.390;2023-08-17T12:44:31;98352.22;;;27.21;67.96
53719;BME280;39616;48.872;9.390;2023-08-17T12:47:01;98349.75;;;27.31;68.19
53719;BME280;39616;48.872;9.390;2023-08-17T12:49:31;98352.78;;;27.54;69.02
53719;BME280;39616;48.872;9.390;2023-08-17T12:52:02;98356.03;;;27.42;69.31
53719;BME280;39616;48.872;9.390;2023-08-17T12:54:32;98361.69;;;27.28;69.92
53719;BME280;39616;48.872;9.390;2023-08-17T12:57:02;98375.66;;;27.24;70.18
53719;BME280;39616;48.872;9.390;2023-08-17T12:59:33;98387.13;;;27.33;68.55
53719;BME280;39616;48.872;9.390;2023-08-17T13:02:04;98390.72;;;27.30;67.41
53719;BME280;39616;48.872;9.390;2023-08-17T13:04:34;98399.91;;;27.24;68.77
53719;BME280;39616;48.872;9.390;2023-08-17T13:07:05;98401.88;;;27.27;69.41
53719;BME280;39616;48.872;9.390;2023-08-17T13:09:35;98398.38;;;27.08;69.84
53719;BME280;39616;48.872;9.390;2023-08-17T13:12:05;98400.38;;;27.04;70.32
53719;BME280;39616;48.872;9.390;2023-08-17T13:14:36;98389.56;;;27.20;70.21
53719;BME280;39616;48.872;9.390;2023-08-17T13:17:06;98383.31;;;26.95;70.51
53719;BME280;39616;48.872;9.390;2023-08-17T13:19:36;98385.75;;;26.86;71.20
53719;BME280;39616;48.872;9.390;2023-08-17T13:22:08;98394.44;;;26.95;72.18